Tropical Cyclones
[Index]
Main Index Home Page Stock Weather Photos Extreme Storms Discussion Storm News and Storm Chasing Reports Tropical Cyclones / Hurricanes / Typhoons Weather Data and Links Wild Fires / Bushfires Weather Observation Techniques Weather Picture Catalogue Tornado Pictures and Reports Stock Video Footage and DVDs for sale
Season 2002-2003 Tropical Cyclone GRAHAM Track Map
Season 2002-2003 Summaries: [BoM-AU] [JTWC-AU] [JTWC-SIO] [JTWC-SPAC] [JTWC-SH]
<<- Previous TC | JTWC 2002-2003 Season | Next TC ->>

click for intensity scale information  Lat/long Grid: Show Hide

 Date Labels: Show Hide

Joint Typhoon Warning Centre Cyclone Data

Name: GRAHAM

24 Feb 2003 12:00 UTC to 01 Mar 2003 18:00 UTC

    date/time    lat    long     hPa   cat  kts
2003-02-24 12   17.3   118.5    1002         25          
2003-02-24 18   17.1   118.4    1002         25          
2003-02-25 00   16.9   118.4    1002         25          
2003-02-25 06   16.7   118.4    1002         25          
2003-02-25 12   16.6   118.6    1002         25          
2003-02-25 18   16.8   118.7    1002         25          
2003-02-26 00   17.0   118.8    1002         25          
2003-02-26 06   17.2   118.9    1002         25          
2003-02-26 12   17.4   119.0    1002         25          
2003-02-26 18   17.6   119.1    1002         25          
2003-02-27 00   17.7   119.4    1002         25          
2003-02-27 06   17.7   119.8    1002         25          
2003-02-27 12   17.8   120.2    1002         30          
2003-02-27 18   18.0   120.5    1000         30          
2003-02-28 00   18.2   120.7    1000         30          
2003-02-28 06   18.6   120.7    1000         30          
2003-02-28 12   19.1   120.7     994    1    40          
2003-02-28 18   19.6   121.1     997         35          
2003-03-01 00   20.0   121.5    1000         30          
2003-03-01 06   20.3   121.7    1002         25          
2003-03-01 12   20.8   122.0    1004         20          
2003-03-01 18   21.5   122.2    1006         15          
Winds are 1-min average.

Tropical cyclone tracks developed by Michael Bath using data from the Joint Typhoon Warning Centre Best Tracks and Google Maps.


[Australian Severe Weather index] [Copyright Notice] [Email Contacts] [Search This Site] [Privacy Policy]
Document: tropical_cyclone_graham.htm Updated: 28 June 2017